Piermont, New Hampshire
Current Conditions -  °F | °C
As of 8:15 PM on Friday 19 Dec 2014 (Local Time) from K1P1 Reporting Station
Clear Clear  
Wind Chill: 15°   Ceiling: Unl
Heat Index: 26°   Visibility: 10mi
Dew Point: 23°   Wind: 10mph
Humidity: 90%   Direction: 280°W
Pressure: 30.09"   Gusts: 21mph
Location:  43.97°N, 72.08°W
Report Text: K1P1 200115Z AUTO 28009G18KT 10SM CLR M04/M05 A3009 RMK AO2 T10361050
Loading
Personal Weather Stations






























Interactive Weather Map New forecast layout! Learn more

10-Day Weather Forecast

Advertisements
Track Severe Weather on mobile